CYOJ

High Level Airport

High Level, Alberta, Canada
METAR CYOJ 092200Z 24002KT 15SM BKN260 M12/M14 A2977 RMK CI5 SLP115
Observed Flight Rules
Dec-9 @ 22:00 UTC (31 minutes ago) Visual Flight Rules
Wind Visibility Clouds
240° at 2 knots 15 miles
  • Broken at 26,000' AGL
Temperatures Readings
Current -12°C / 10°F
Dewpoint -14°C / 7°F
Humidity 85%
Altimeter 29.77" Hg
Pressure 1011.5 hPa
Elevation 338
METAR CYOJ 092200Z 24002KT 15SM BKN260 M12/M14 A2977 RMK CI5 SLP115
Observed Flight Rules
Dec-9 @ 22:00 UTC
(31 minutes ago)
VFR
Wind Visibility
240° at 2 knots 15 miles
Clouds
  • Broken at 26,000' AGL
Temperature Dewpoint
-12°C / 10°F -14°C / 7°F
Humidity Altimeter Pressure
85% 29.77" Hg 1011.5 hPa